Time;durP1;ratioP1;P1;durP2;ratioP2;P2;SDS_P1;SDS_P2;PMS_P1;PMS_P2;Temp;Humidity;BMP_temperature;BMP_pressure;BME280_temperature;BME280_humidity;BME280_pressure;Samples;Min_cycle;Max_cycle;Signal;HPM_P1;HPM_P2
2023/04/16 00:23:10;;;;;;;;;;;;;;;5.12;88.62;98016.10;105090;1310;22591;-84
2023/04/16 00:33:29;;;;;;;;;;;;;;;5.02;88.40;98010.92;99591;1325;5465176;-84
2023/04/16 00:48:21;;;;;;;;;;;;;;;5.04;89.96;98027.34;103856;1300;544596;-83
2023/04/16 00:51:49;;;;;;;;;;;;;;;5.03;90.01;98031.46;106393;1295;23957;-84
2023/04/16 00:58:44;;;;;;;;;;;;;;;5.01;89.92;98040.90;104826;1293;22573;-84
2023/04/16 01:06:12;;;;;;;;;;;;;;;4.97;89.91;98055.34;103800;1304;546905;-83
2023/04/16 01:16:32;;;;;;;;;;;;;;;4.85;89.49;98063.06;103829;1306;22753;-83
2023/04/16 01:24:00;;;;;;;;;;;;;;;4.80;89.83;98067.58;103617;1302;544377;-83
2023/04/16 01:45:27;;;;;;;;;;;;;;;4.62;90.36;98066.48;105108;1314;123320;-85
2023/04/16 01:48:54;;;;;;;;;;;;;;;4.59;90.30;98067.36;104086;1320;22600;-83
2023/04/16 02:03:16;;;;;;;;;;;;;;;4.45;90.73;98066.38;103522;1305;544843;-83
2023/04/16 02:06:42;;;;;;;;;;;;;;;4.37;90.94;98062.55;105082;1307;25954;-83
2023/04/16 02:10:09;;;;;;;;;;;;;;;4.31;91.21;98056.69;104571;1315;23710;-83
2023/04/16 02:13:34;;;;;;;;;;;;;;;4.24;91.47;98058.13;104014;1317;22775;-83
2023/04/16 02:28:04;;;;;;;;;;;;;;;3.93;92.40;98081.91;103754;1308;546509;-83
2023/04/16 02:31:32;;;;;;;;;;;;;;;3.91;92.55;98086.36;106326;1296;25238;-82
2023/04/16 02:34:58;;;;;;;;;;;;;;;3.87;92.64;98082.92;105336;1304;22553;-84
2023/04/16 03:03:41;;;;;;;;;;;;;;;3.59;94.46;98107.35;104853;1314;123826;-84
2023/04/16 03:07:08;;;;;;;;;;;;;;;3.62;94.50;98113.99;104238;1319;24307;-83
2023/04/16 03:10:35;;;;;;;;;;;;;;;3.66;94.64;98117.30;104239;1302;24535;-82
2023/04/16 03:21:30;;;;;;;;;;;;;;;3.74;94.43;98127.41;105166;1307;123885;-83
2023/04/16 03:46:19;;;;;;;;;;;;;;;3.81;93.91;98162.04;105004;1289;124054;-84
2023/04/16 03:49:48;;;;;;;;;;;;;;;3.75;93.70;98165.61;101113;1309;5438830;-83
2023/04/16 03:53:14;;;;;;;;;;;;;;;3.71;94.04;98168.92;104655;1314;22668;-83
2023/04/16 03:56:41;;;;;;;;;;;;;;;3.65;93.71;98171.45;104341;1298;123720;-83
2023/04/16 04:00:06;;;;;;;;;;;;;;;3.60;93.82;98173.77;104087;1322;22578;-83
2023/04/16 04:07:35;;;;;;;;;;;;;;;3.57;94.61;98178.74;103801;1304;547090;-83
2023/04/16 04:17:57;;;;;;;;;;;;;;;3.75;95.73;98196.98;104379;1295;22700;-82
2023/04/16 04:21:24;;;;;;;;;;;;;;;3.84;95.82;98198.62;99958;1322;5453930;-83
2023/04/16 04:28:52;;;;;;;;;;;;;;;4.06;96.13;98211.38;103414;1307;564195;-84
2023/04/16 04:39:14;;;;;;;;;;;;;;;4.38;96.35;98226.70;103732;1308;123671;-83
2023/04/16 04:46:41;;;;;;;;;;;;;;;4.57;96.11;98232.92;103768;1308;545546;-83
2023/04/16 04:50:09;;;;;;;;;;;;;;;4.65;96.58;98237.04;105380;1307;22663;-84
2023/04/16 04:56:47;;;;;;;;;;;;;;;;;;;;;
2023/04/16 05:04:15;;;;;;;;;;;;;;;;;;;;;
2023/04/16 05:11:24;;;;;;;;;;;;;;;5.29;96.31;98243.45;104784;1314;25234;-83
2023/04/16 05:14:48;;;;;;;;;;;;;;;5.36;96.32;98243.08;104116;1314;123426;-83
2023/04/16 05:25:43;;;;;;;;;;;;;;;5.66;96.13;98261.25;103769;1322;547844;-83
2023/04/16 05:29:11;;;;;;;;;;;;;;;5.75;96.43;98265.02;105238;1307;22659;-81
2023/04/16 05:43:31;;;;;;;;;;;;;;;6.17;96.06;98276.46;103943;1314;544755;-83
2023/04/16 06:12:18;;;;;;;;;;;;;;;6.71;94.39;98284.48;103834;1304;546668;-84
2023/04/16 06:15:39;;;;;;;;;;;;;;;6.73;94.95;98290.90;105698;1297;123941;-83
2023/04/16 06:19:06;;;;;;;;;;;;;;;6.84;95.06;98295.71;105700;1300;24254;-84
2023/04/16 06:22:34;;;;;;;;;;;;;;;6.96;94.72;98298.82;104853;1290;123264;-84
2023/04/16 06:25:54;;;;;;;;;;;;;;;7.09;94.68;98301.69;100729;1303;5493881;-84
2023/04/16 06:32:40;;;;;;;;;;;;;;;7.30;94.60;98305.34;104299;1299;22752;-83
2023/04/16 06:36:06;;;;;;;;;;;;;;;7.41;94.24;98307.33;103768;1315;23256;-83
2023/04/16 06:53:55;;;;;;;;;;;;;;;7.77;93.23;98312.10;104889;1306;25599;-83
2023/04/16 06:57:22;;;;;;;;;;;;;;;7.87;93.15;98319.13;104145;1312;123620;-84
2023/04/16 07:00:48;;;;;;;;;;;;;;;7.93;92.94;98325.30;104013;1295;23022;-83
2023/04/16 07:04:14;;;;;;;;;;;;;;;7.99;92.64;98331.17;99751;1327;5464179;-84
2023/04/16 07:15:10;;;;;;;;;;;;;;;8.28;91.39;98341.45;104800;1305;22552;-84
2023/04/16 07:40:51;;;;;;;;;;;;;;;9.24;88.69;98357.80;103676;1323;556798;-83
2023/04/16 07:47:45;;;;;;;;;;;;;;;9.57;87.52;98360.11;104178;1318;22644;-83
2023/04/16 07:51:12;;;;;;;;;;;;;;;9.61;87.04;98363.75;103662;1305;22549;-84
2023/04/16 07:58:40;;;;;;;;;;;;;;;9.86;86.67;98368.16;103363;1305;546940;-83
2023/04/16 08:02:07;;;;;;;;;;;;;;;9.99;85.63;98376.88;105017;1296;22553;-84
2023/04/16 08:05:33;;;;;;;;;;;;;;;10.12;85.12;98372.98;104281;1316;124005;-84
2023/04/16 08:09:00;;;;;;;;;;;;;;;10.29;83.99;98376.73;104257;1317;22613;-85
2023/04/16 08:23:22;;;;;;;;;;;;;;;10.91;80.53;98375.36;104447;1315;123924;-83
2023/04/16 08:34:16;;;;;;;;;;;;;;;11.46;78.00;98384.83;103547;1299;548145;-85
2023/04/16 08:41:11;;;;;;;;;;;;;;;11.78;76.52;98378.23;103984;1314;123553;-85
2023/04/16 08:59:16;;;;;;;;;;;;;;;12.71;72.26;98388.30;104612;1309;123734;-83
2023/04/16 09:02:42;;;;;;;;;;;;;;;12.93;70.47;98384.05;104197;1299;22579;-85
2023/04/16 09:17:25;;;;;;;;;;;;;;;13.87;66.46;98387.66;104508;1313;124011;-84
2023/04/16 09:20:51;;;;;;;;;;;;;;;14.10;64.96;98382.10;103892;1317;22611;-84
2023/04/16 09:31:45;;;;;;;;;;;;;;;14.50;62.78;98373.89;103784;1305;545315;-86
2023/04/16 09:35:13;;;;;;;;;;;;;;;14.71;62.92;98375.13;105301;1300;123469;-86
2023/04/16 09:49:48;;;;;;;;;;;;;;;15.24;60.75;98375.30;103698;1321;556920;-84
2023/04/16 09:53:04;;;;;;;;;;;;;;;;;;;;;
2023/04/16 09:56:46;;;;;;;;;;;;;;;15.77;58.71;98375.87;104879;1303;25491;-85
2023/04/16 10:00:12;;;;;;;;;;;;;;;16.00;57.90;98379.67;104426;1296;123432;-85
2023/04/16 10:03:34;;;;;;;;;;;;;;;16.18;56.19;98385.62;100792;1305;5491161;-84
2023/04/16 10:06:40;;;;;;;;;;;;;;;;;;;;;
2023/04/16 10:21:10;;;;;;;;;;;;;;;;;;;;;
2023/04/16 10:24:21;;;;;;;;;;;;;;;;;;;;;
2023/04/16 10:27:58;;;;;;;;;;;;;;;;;;;;;
2023/04/16 10:31:18;;;;;;;;;;;;;;;;;;;;;
2023/04/16 10:35:01;;;;;;;;;;;;;;;16.30;49.53;98376.54;101768;1299;5470936;-85
2023/04/16 10:38:34;;;;;;;;;;;;;;;16.41;50.58;98381.36;105214;1302;24066;-85
2023/04/16 10:41:27;;;;;;;;;;;;;;;;;;;;;
2023/04/16 10:44:46;;;;;;;;;;;;;;;;;;;;;
2023/04/16 10:48:37;;;;;;;;;;;;;;;16.97;49.21;98383.05;104020;1322;24327;-83
2023/04/16 10:51:50;;;;;;;;;;;;;;;;;;;;;
2023/04/16 10:54:58;;;;;;;;;;;;;;;;;;;;;
2023/04/16 10:58:50;;;;;;;;;;;;;;;17.30;47.65;98380.08;102636;1326;123822;-85
2023/04/16 11:06:10;;;;;;;;;;;;;;;17.20;47.33;98380.67;103729;1313;545376;-85
2023/04/16 11:09:38;;;;;;;;;;;;;;;17.19;47.89;98386.13;106103;1292;23012;-85
2023/04/16 11:12:36;;;;;;;;;;;;;;;;;;;;;
2023/04/16 11:19:57;;;;;;;;;;;;;;;17.22;46.70;98385.28;99639;1315;5723384;-86
2023/04/16 11:23:24;;;;;;;;;;;;;;;17.29;45.87;98383.73;103135;1328;124153;-85
2023/04/16 11:26:14;;;;;;;;;;;;;;;;;;;;;
2023/04/16 11:33:29;;;;;;;;;;;;;;;17.70;44.74;98392.46;103592;1298;544261;-83
2023/04/16 11:36:37;;;;;;;;;;;;;;;;;;;;;
2023/04/16 11:40:24;;;;;;;;;;;;;;;17.14;48.11;98393.00;106465;1294;22528;-85
2023/04/16 11:43:03;;;;;;;;;;;;;;;;;;;;;
2023/04/16 11:46:33;;;;;;;;;;;;;;;;;;;;;
2023/04/16 11:50:18;;;;;;;;;;;;;;;;;;;;;
2023/04/16 11:53:27;;;;;;;;;;;;;;;;;;;;;
2023/04/16 11:57:08;;;;;;;;;;;;;;;;;;;;;
2023/04/16 12:00:11;;;;;;;;;;;;;;;16.30;51.37;98401.27;104717;1310;123018;-86
2023/04/16 12:03:45;;;;;;;;;;;;;;;;;;;;;
2023/04/16 12:07:26;;;;;;;;;;;;;;;16.27;51.99;98395.17;104803;1305;24463;-85
2023/04/16 12:10:52;;;;;;;;;;;;;;;16.31;52.43;98394.13;104584;1306;123427;-83
2023/04/16 12:13:52;;;;;;;;;;;;;;;;;;;;;
2023/04/16 12:17:17;;;;;;;;;;;;;;;;;;;;;
2023/04/16 12:21:08;;;;;;;;;;;;;;;16.47;51.06;98396.87;103546;1318;22613;-84
2023/04/16 12:28:17;;;;;;;;;;;;;;;;;;;;;
2023/04/16 12:32:00;;;;;;;;;;;;;;;16.75;50.02;98388.74;105845;1296;22526;-86
2023/04/16 12:35:27;;;;;;;;;;;;;;;17.00;48.08;98380.98;105196;1299;123014;-84
2023/04/16 12:38:55;;;;;;;;;;;;;;;17.18;46.45;98378.93;105423;1290;22578;-84
2023/04/16 12:46:16;;;;;;;;;;;;;;;17.39;44.91;98370.58;103927;1304;544498;-84
2023/04/16 12:49:34;;;;;;;;;;;;;;;17.38;45.65;98373.27;105749;1304;25576;-84
2023/04/16 12:53:02;;;;;;;;;;;;;;;17.54;46.55;98376.40;105813;1301;123858;-83
2023/04/16 12:56:02;;;;;;;;;;;;;;;;;;;;;
2023/04/16 12:59:24;;;;;;;;;;;;;;;;;;;;;
2023/04/16 13:02:42;;;;;;;;;;;;;;;;;;;;;
2023/04/16 13:06:23;;;;;;;;;;;;;;;18.25;44.82;98365.90;104035;1318;124151;-85
2023/04/16 13:09:35;;;;;;;;;;;;;;;;;;;;;
2023/04/16 13:13:16;;;;;;;;;;;;;;;;;;;;;
2023/04/16 13:16:40;;;;;;;;;;;;;;;18.43;43.10;98362.93;105497;1289;124106;-85
2023/04/16 13:20:02;;;;;;;;;;;;;;;;;;;;;
2023/04/16 13:23:04;;;;;;;;;;;;;;;;;;;;;
2023/04/16 13:26:16;;;;;;;;;;;;;;;;;;;;;
2023/04/16 13:30:02;;;;;;;;;;;;;;;19.24;42.19;98358.84;105053;1289;123873;-85
2023/04/16 13:33:23;;;;;;;;;;;;;;;19.37;42.47;98356.67;105320;1289;24126;-85
2023/04/16 13:36:36;;;;;;;;;;;;;;;;;;;;;
2023/04/16 13:40:20;;;;;;;;;;;;;;;19.32;43.17;98359.46;104951;1309;22596;-84
2023/04/16 13:43:17;;;;;;;;;;;;;;;19.20;43.09;98362.55;104975;1294;22549;-87
2023/04/16 13:46:25;;;;;;;;;;;;;;;;;;;;;
2023/04/16 13:50:06;;;;;;;;;;;;;;;19.11;43.70;98361.45;104479;1311;22770;-85
2023/04/16 13:53:03;;;;;;;;;;;;;;;;;;;;;
2023/04/16 13:56:17;;;;;;;;;;;;;;;;;;;;;
2023/04/16 13:59:24;;;;;;;;;;;;;;;;;;;;;
2023/04/16 14:02:37;;;;;;;;;;;;;;;;;;;;;
2023/04/16 14:05:51;;;;;;;;;;;;;;;;;;;;;
2023/04/16 14:09:23;;;;;;;;;;;;;;;18.76;43.00;98359.47;106400;1293;23246;-84
2023/04/16 14:12:25;;;;;;;;;;;;;;;;;;;;;
2023/04/16 14:16:11;;;;;;;;;;;;;;;18.56;42.14;98357.30;106536;1292;24318;-84
2023/04/16 14:19:25;;;;;;;;;;;;;;;;;;;;;
2023/04/16 14:22:46;;;;;;;;;;;;;;;18.49;43.32;98358.09;106076;1296;25252;-85
2023/04/16 14:26:26;;;;;;;;;;;;;;;18.54;43.31;98358.41;106405;1281;22520;-85
2023/04/16 14:29:46;;;;;;;;;;;;;;;18.56;43.12;98358.75;106552;1290;124864;-84
2023/04/16 14:32:38;;;;;;;;;;;;;;;;;;;;;
2023/04/16 14:36:31;;;;;;;;;;;;;;;18.40;42.40;98356.13;106423;1277;123864;-84
2023/04/16 14:39:37;;;;;;;;;;;;;;;;;;;;;
2023/04/16 14:43:13;;;;;;;;;;;;;;;18.05;43.02;98353.71;106425;1295;124089;-85
2023/04/16 14:46:33;;;;;;;;;;;;;;;17.92;43.84;98357.08;105964;1283;25243;-84
2023/04/16 14:49:54;;;;;;;;;;;;;;;17.97;44.65;98355.80;105899;1301;27375;-84
2023/04/16 14:53:01;;;;;;;;;;;;;;;;;;;;;
2023/04/16 14:56:41;;;;;;;;;;;;;;;18.18;43.95;98361.76;105728;1286;25960;-85
2023/04/16 15:00:10;;;;;;;;;;;;;;;18.22;43.97;98359.20;105697;1301;123239;-84
2023/04/16 15:03:38;;;;;;;;;;;;;;;18.27;44.24;98364.04;105991;1302;22546;-84
2023/04/16 15:06:41;;;;;;;;;;;;;;;;;;;;;
2023/04/16 15:10:23;;;;;;;;;;;;;;;18.22;43.79;98364.33;105514;1305;22533;-84
2023/04/16 15:13:42;;;;;;;;;;;;;;;18.11;44.59;98359.74;104946;1310;123414;-84
2023/04/16 15:16:50;;;;;;;;;;;;;;;;;;;;;
2023/04/16 15:19:55;;;;;;;;;;;;;;;;;;;;;
2023/04/16 15:23:46;;;;;;;;;;;;;;;17.76;44.79;98365.84;104046;1307;123568;-86
2023/04/16 15:26:33;;;;;;;;;;;;;;;;;;;;;
2023/04/16 15:29:52;;;;;;;;;;;;;;;;;;;;;
2023/04/16 15:33:12;;;;;;;;;;;;;;;;;;;;;
2023/04/16 15:36:31;;;;;;;;;;;;;;;;;;;;;
2023/04/16 15:39:33;;;;;;;;;;;;;;;;;;;;;
2023/04/16 15:43:24;;;;;;;;;;;;;;;17.16;47.09;98365.30;104716;1308;124264;-87
2023/04/16 15:46:17;;;;;;;;;;;;;;;17.04;47.66;98368.23;105024;1292;26638;-85
2023/04/16 15:50:04;;;;;;;;;;;;;;;17.00;47.25;98372.83;105094;1304;22573;-84
2023/04/16 15:52:57;;;;;;;;;;;;;;;;;;;;;
2023/04/16 15:56:10;;;;;;;;;;;;;;;;;;;;;
2023/04/16 16:00:04;;;;;;;;;;;;;;;16.87;47.58;98372.78;106511;1288;124251;-84
2023/04/16 16:03:14;;;;;;;;;;;;;;;;;;;;;
2023/04/16 16:06:42;;;;;;;;;;;;;;;;;;;;;
2023/04/16 16:10:19;;;;;;;;;;;;;;;16.56;49.64;98380.70;106121;1296;24238;-85
2023/04/16 16:13:17;;;;;;;;;;;;;;;;;;;;;
2023/04/16 16:17:00;;;;;;;;;;;;;;;16.28;49.71;98386.66;105418;1283;22530;-85
2023/04/16 16:19:55;;;;;;;;;;;;;;;;;;;;;
2023/04/16 16:23:46;;;;;;;;;;;;;;;15.99;50.69;98390.16;105564;1303;124438;-84
2023/04/16 16:27:12;;;;;;;;;;;;;;;15.88;50.83;98394.01;105689;1286;24269;-85
2023/04/16 16:30:39;;;;;;;;;;;;;;;15.73;51.42;98396.24;105588;1299;123573;-85
2023/04/16 16:33:57;;;;;;;;;;;;;;;15.61;51.91;98397.04;105137;1304;22587;-85
2023/04/16 16:37:16;;;;;;;;;;;;;;;15.45;52.00;98400.55;105237;1285;124263;-84
2023/04/16 16:40:43;;;;;;;;;;;;;;;15.29;52.62;98406.78;105407;1299;22960;-85
2023/04/16 16:43:37;;;;;;;;;;;;;;;;;;;;;
2023/04/16 16:46:58;;;;;;;;;;;;;;;;;;;;;
2023/04/16 16:50:17;;;;;;;;;;;;;;;;;;;;;
2023/04/16 16:53:29;;;;;;;;;;;;;;;;;;;;;
2023/04/16 16:57:20;;;;;;;;;;;;;;;14.65;55.19;98431.10;105070;1285;22566;-85
2023/04/16 17:00:40;;;;;;;;;;;;;;;14.55;56.00;98430.63;104762;1305;124191;-85
2023/04/16 17:06:45;;;;;;;;;;;;;;;;;;;;;
2023/04/16 17:13:48;;;;;;;;;;;;;;;;;;;;;
2023/04/16 17:17:00;;;;;;;;;;;;;;;;;;;;;
2023/04/16 17:20:37;;;;;;;;;;;;;;;;;;;;;
2023/04/16 17:24:04;;;;;;;;;;;;;;;;;;;;;
2023/04/16 17:27:44;;;;;;;;;;;;;;;13.92;58.06;98448.56;104493;1313;24252;-85
2023/04/16 17:30:50;;;;;;;;;;;;;;;;;;;;;
2023/04/16 17:34:03;;;;;;;;;;;;;;;;;;;;;
2023/04/16 17:37:55;;;;;;;;;;;;;;;13.48;59.91;98455.55;103611;1323;123842;-85
2023/04/16 17:40:35;;;;;;;;;;;;;;;13.33;60.04;98460.64;103427;1313;22769;-85
2023/04/16 17:48:29;;;;;;;;;;;;;;;13.06;61.78;98463.64;104180;1315;548906;-83
2023/04/16 17:51:57;;;;;;;;;;;;;;;12.88;62.09;98466.16;105502;1301;24310;-84
2023/04/16 17:55:23;;;;;;;;;;;;;;;12.76;62.82;98466.61;104496;1309;123235;-82
2023/04/16 17:58:49;;;;;;;;;;;;;;;12.65;63.22;98474.81;104730;1307;23936;-83
2023/04/16 18:05:07;;;;;;;;;;;;;;;;;;;;;
2023/04/16 18:27:26;;;;;;;;;;;;;;;11.80;65.22;98496.67;104094;1301;544375;-84
2023/04/16 18:30:40;;;;;;;;;;;;;;;;;;;;;
2023/04/16 18:38:03;;;;;;;;;;;;;;;11.57;65.93;98499.73;106071;1297;123561;-82
2023/04/16 18:51:54;;;;;;;;;;;;;;;11.23;67.06;98515.28;104682;1314;22546;-84
2023/04/16 19:06:26;;;;;;;;;;;;;;;10.90;66.49;98523.62;104718;1306;123940;-84
2023/04/16 19:20:46;;;;;;;;;;;;;;;10.69;67.71;98521.73;104092;1304;545008;-83
2023/04/16 19:24:14;;;;;;;;;;;;;;;10.55;68.81;98521.48;105798;1297;22526;-83
2023/04/16 19:31:09;;;;;;;;;;;;;;;10.36;69.76;98521.05;103996;1305;123917;-84
2023/04/16 19:45:32;;;;;;;;;;;;;;;9.93;71.61;98515.98;105356;1309;24044;-83
2023/04/16 20:03:20;;;;;;;;;;;;;;;9.42;73.91;98517.84;105063;1309;22641;-84
2023/04/16 20:10:13;;;;;;;;;;;;;;;9.26;74.58;98515.08;103889;1305;22559;-85
2023/04/16 20:17:28;;;;;;;;;;;;;;;;;;;;;
2023/04/16 20:24:37;;;;;;;;;;;;;;;8.98;75.31;98506.42;104325;1317;124118;-85
2023/04/16 20:42:26;;;;;;;;;;;;;;;8.86;75.97;98503.45;107139;1296;22697;-83
2023/04/16 20:56:42;;;;;;;;;;;;;;;8.77;76.39;98498.27;103613;1306;544525;-84
2023/04/16 21:25:25;;;;;;;;;;;;;;;8.21;78.02;98495.18;105126;1310;123676;-83
2023/04/16 21:28:52;;;;;;;;;;;;;;;8.25;77.95;98495.17;104113;1315;22573;-82
2023/04/16 21:32:19;;;;;;;;;;;;;;;8.32;77.98;98497.38;103912;1302;123830;-82
2023/04/16 21:46:28;;;;;;;;;;;;;;;;;;;;;
2023/04/16 21:50:14;;;;;;;;;;;;;;;8.72;78.98;98487.20;105546;1302;123551;-83
2023/04/16 21:57:09;;;;;;;;;;;;;;;8.75;79.79;98486.89;103662;1308;123315;-82
2023/04/16 22:11:06;;;;;;;;;;;;;;;8.73;81.10;98489.10;103823;1305;546305;-82
2023/04/16 22:17:59;;;;;;;;;;;;;;;8.71;81.16;98488.04;104417;1317;22543;-84
2023/04/16 22:32:39;;;;;;;;;;;;;;;8.70;81.81;98492.20;105337;1303;123806;-82
2023/04/16 22:36:07;;;;;;;;;;;;;;;8.71;81.95;98492.30;105441;1299;24276;-82
2023/04/16 22:43:01;;;;;;;;;;;;;;;8.69;82.54;98490.70;100957;1311;5455516;-84
2023/04/16 23:04:16;;;;;;;;;;;;;;;8.51;82.87;98495.55;104569;1315;26172;-83
2023/04/16 23:07:42;;;;;;;;;;;;;;;8.49;82.82;98497.02;104304;1296;123910;-83
2023/04/16 23:22:04;;;;;;;;;;;;;;;8.40;83.84;98494.35;103647;1324;22591;-84
2023/04/16 23:36:26;;;;;;;;;;;;;;;8.30;84.45;98489.13;104616;1313;22675;-83
2023/04/16 23:39:37;;;;;;;;;;;;;;;;;;;;;
2023/04/16 23:50:47;;;;;;;;;;;;;;;8.16;85.02;98489.41;103631;1313;545583;-83
2023/04/16 23:54:14;;;;;;;;;;;;;;;8.09;85.42;98489.55;105247;1306;22566;-83
2023/04/16 23:57:41;;;;;;;;;;;;;;;8.04;85.17;98485.60;104473;1315;123396;-83
